createdAt,value
2022-10-30T00:01:19.936Z,28.00
2022-10-30T00:04:05.869Z,27.20
2022-10-30T00:06:51.756Z,25.47
2022-10-30T00:09:37.596Z,27.47
2022-10-30T00:12:23.497Z,25.80
2022-10-30T00:15:09.573Z,27.27
2022-10-30T00:17:56.313Z,24.23
2022-10-30T00:20:42.634Z,26.03
2022-10-30T00:23:28.536Z,25.30
2022-10-30T00:26:14.847Z,27.80
2022-10-30T00:29:00.961Z,26.20
2022-10-30T00:31:46.795Z,25.27
2022-10-30T00:34:32.797Z,28.07
2022-10-30T00:37:18.731Z,25.83
2022-10-30T00:40:05.528Z,25.70
2022-10-30T00:42:52.053Z,25.23
2022-10-30T00:45:38.173Z,23.77
2022-10-30T00:48:25.793Z,25.80
2022-10-30T00:51:12.447Z,24.03
2022-10-30T00:54:00.280Z,24.37
2022-10-30T00:56:46.629Z,23.13
2022-10-30T00:59:34.142Z,25.50
2022-10-30T01:02:20.672Z,27.00
2022-10-30T01:05:07.050Z,25.70
2022-10-30T01:07:52.845Z,24.43
2022-10-30T01:10:41.659Z,24.30
2022-10-30T01:13:27.927Z,24.50
2022-10-30T01:16:30.075Z,23.07
2022-10-30T01:19:18.341Z,25.13
2022-10-30T01:22:07.788Z,25.87
2022-10-30T01:25:06.180Z,25.13
2022-10-30T01:27:59.981Z,23.40
2022-10-30T01:31:01.386Z,23.40
2022-10-30T01:33:56.783Z,25.07
2022-10-30T01:36:50.713Z,24.40
2022-10-30T01:39:39.064Z,25.53
2022-10-30T01:42:46.009Z,24.30
2022-10-30T01:45:52.803Z,23.03
2022-10-30T01:48:53.781Z,25.13
2022-10-30T01:51:46.340Z,26.00
2022-10-30T01:54:38.308Z,22.73
2022-10-30T01:57:24.752Z,23.57
2022-10-30T02:00:13.330Z,23.27
2022-10-30T02:02:59.313Z,21.33
2022-10-30T02:05:50.099Z,23.47
2022-10-30T02:08:37.490Z,25.00
2022-10-30T02:11:24.235Z,27.40
2022-10-30T02:14:11.000Z,25.93
2022-10-30T02:16:59.476Z,22.93
2022-10-30T02:19:45.490Z,25.63
2022-10-30T02:22:31.875Z,25.57
2022-10-30T02:25:17.997Z,26.63
2022-10-30T02:28:03.867Z,25.00
2022-10-30T02:30:51.868Z,27.23
2022-10-30T02:33:37.635Z,25.07
2022-10-30T02:36:23.597Z,25.27
2022-10-30T02:39:12.095Z,23.97
2022-10-30T02:41:57.698Z,24.27
2022-10-30T02:44:43.515Z,24.60
2022-10-30T02:47:29.236Z,28.90
2022-10-30T02:50:15.251Z,26.90
2022-10-30T02:53:01.435Z,28.13
2022-10-30T02:55:47.833Z,25.73
2022-10-30T02:58:33.784Z,24.57
2022-10-30T03:01:20.375Z,23.87
2022-10-30T03:04:09.375Z,22.67
2022-10-30T03:06:55.343Z,23.70
2022-10-30T03:09:42.542Z,23.13
2022-10-30T03:12:28.455Z,28.90
2022-10-30T03:15:14.259Z,25.83
2022-10-30T03:18:00.088Z,24.27
2022-10-30T03:20:46.281Z,21.80
2022-10-30T03:23:31.773Z,19.37
2022-10-30T03:26:20.714Z,23.13
2022-10-30T03:29:22.790Z,22.20
2022-10-30T03:32:12.151Z,19.90
2022-10-30T03:35:06.807Z,19.57
2022-10-30T03:37:52.381Z,19.67
2022-10-30T03:40:38.779Z,19.40
2022-10-30T03:43:24.585Z,19.50
2022-10-30T03:46:11.439Z,19.20
2022-10-30T03:48:57.557Z,20.70
2022-10-30T03:51:43.403Z,20.60
2022-10-30T03:54:28.838Z,20.50
2022-10-30T03:57:14.367Z,19.97
2022-10-30T04:00:13.395Z,20.30
2022-10-30T04:03:12.826Z,22.43
2022-10-30T04:06:01.031Z,21.83
2022-10-30T04:08:47.298Z,23.67
2022-10-30T04:11:32.839Z,21.83
2022-10-30T04:14:18.357Z,21.50
2022-10-30T04:17:06.190Z,22.27
2022-10-30T04:19:52.226Z,23.00
2022-10-30T04:22:37.765Z,23.23
2022-10-30T04:25:24.007Z,23.43
2022-10-30T04:28:11.179Z,22.87
2022-10-30T04:30:57.293Z,20.80
2022-10-30T04:33:44.368Z,20.53
2022-10-30T04:36:32.954Z,21.53
2022-10-30T04:39:19.036Z,20.70
2022-10-30T04:42:05.679Z,19.77
2022-10-30T04:44:53.459Z,18.23
2022-10-30T04:47:39.127Z,18.70
2022-10-30T04:50:24.939Z,19.90
2022-10-30T04:53:21.010Z,18.70
2022-10-30T04:56:09.193Z,19.87
2022-10-30T04:58:56.272Z,19.53
2022-10-30T05:01:42.125Z,18.90
2022-10-30T05:04:27.858Z,18.93
2022-10-30T05:07:15.457Z,19.10
2022-10-30T05:10:01.067Z,19.63
2022-10-30T05:12:46.942Z,18.40
2022-10-30T05:15:32.997Z,18.47
2022-10-30T05:18:19.388Z,19.27
2022-10-30T05:21:05.267Z,19.47
2022-10-30T05:23:50.958Z,19.10
2022-10-30T05:26:36.708Z,17.80
2022-10-30T05:29:22.440Z,18.40
2022-10-30T05:32:08.804Z,18.83
2022-10-30T05:35:13.833Z,18.00
2022-10-30T05:38:00.111Z,17.13
2022-10-30T05:40:47.134Z,16.50
2022-10-30T05:43:34.066Z,17.50
2022-10-30T05:46:20.092Z,17.57
2022-10-30T05:49:09.318Z,17.57
2022-10-30T05:51:55.466Z,16.53
2022-10-30T05:54:41.341Z,16.90
2022-10-30T05:57:47.127Z,16.00
2022-10-30T06:00:34.435Z,17.17
2022-10-30T06:03:20.377Z,15.83
2022-10-30T06:06:06.709Z,16.37
2022-10-30T06:08:52.456Z,14.93
2022-10-30T06:11:53.636Z,14.90
2022-10-30T06:14:46.401Z,15.53
2022-10-30T06:17:32.150Z,17.40
2022-10-30T06:20:24.820Z,17.10
2022-10-30T06:23:39.211Z,16.07
2022-10-30T06:26:36.651Z,16.47
2022-10-30T06:29:27.629Z,15.63
2022-10-30T06:32:14.586Z,15.07
2022-10-30T06:35:02.661Z,15.60
2022-10-30T06:37:48.975Z,15.27
2022-10-30T06:40:35.523Z,15.57
2022-10-30T06:43:37.649Z,15.80
2022-10-30T06:46:32.474Z,15.00
2022-10-30T06:49:20.175Z,20.50
2022-10-30T06:52:06.009Z,17.23
2022-10-30T06:54:53.543Z,15.10
2022-10-30T06:58:05.437Z,16.00
2022-10-30T07:01:02.109Z,17.67
2022-10-30T07:04:13.562Z,14.43
2022-10-30T07:06:59.322Z,19.10
2022-10-30T07:09:46.468Z,17.50
2022-10-30T07:12:34.045Z,16.00
2022-10-30T07:15:29.285Z,16.20
2022-10-30T07:18:23.724Z,16.73
2022-10-30T07:21:13.481Z,15.60
2022-10-30T07:23:59.818Z,15.50
2022-10-30T07:26:51.870Z,14.67
2022-10-30T07:29:56.623Z,14.20
2022-10-30T07:32:44.797Z,14.90
2022-10-30T07:35:46.581Z,14.57
2022-10-30T07:38:46.187Z,15.30
2022-10-30T07:41:47.342Z,16.17
2022-10-30T07:45:01.953Z,14.63
2022-10-30T07:47:54.826Z,14.53
2022-10-30T07:51:00.564Z,15.27
2022-10-30T07:53:46.509Z,15.77
2022-10-30T07:56:32.270Z,16.60
2022-10-30T07:59:37.774Z,15.70
2022-10-30T08:02:59.445Z,14.73
2022-10-30T08:05:54.110Z,14.97
2022-10-30T08:08:50.324Z,15.07
2022-10-30T08:11:41.610Z,14.73
2022-10-30T08:14:27.511Z,15.97
2022-10-30T08:17:14.734Z,14.73
2022-10-30T08:20:02.605Z,13.77
2022-10-30T08:22:54.366Z,15.27
2022-10-30T08:25:43.092Z,15.57
2022-10-30T08:28:32.580Z,14.43
2022-10-30T08:31:19.192Z,13.27
2022-10-30T08:34:24.036Z,15.17
2022-10-30T08:37:12.700Z,14.50
2022-10-30T08:39:58.482Z,14.30
2022-10-30T08:42:58.580Z,14.03
2022-10-30T08:45:45.440Z,15.30
2022-10-30T08:48:32.922Z,14.63
2022-10-30T08:51:18.693Z,14.07
2022-10-30T08:54:05.795Z,14.90
2022-10-30T08:56:51.630Z,13.63
2022-10-30T08:59:37.397Z,15.33
2022-10-30T09:02:23.509Z,13.97
2022-10-30T09:05:32.075Z,14.70
2022-10-30T09:08:30.105Z,15.33
2022-10-30T09:11:28.009Z,15.43
2022-10-30T09:14:13.768Z,12.70
2022-10-30T09:16:59.940Z,14.47
2022-10-30T09:19:46.151Z,15.90
2022-10-30T09:22:41.886Z,17.03
2022-10-30T09:25:27.972Z,16.57
2022-10-30T09:28:36.224Z,16.13
2022-10-30T09:31:53.666Z,17.53
2022-10-30T09:34:39.676Z,15.90
2022-10-30T09:37:34.562Z,17.53
2022-10-30T09:40:20.606Z,18.00
2022-10-30T09:43:26.135Z,15.83
2022-10-30T09:46:16.529Z,16.13
2022-10-30T09:49:19.312Z,16.17
2022-10-30T09:52:14.535Z,15.90
2022-10-30T09:55:05.927Z,16.47
2022-10-30T09:58:16.613Z,16.70
2022-10-30T10:01:11.073Z,15.40
2022-10-30T10:04:22.475Z,15.70
2022-10-30T10:07:40.674Z,16.17
2022-10-30T10:10:46.793Z,14.93
2022-10-30T10:13:42.001Z,15.27
2022-10-30T10:16:29.489Z,14.80
2022-10-30T10:19:20.073Z,13.10
2022-10-30T10:22:13.934Z,14.90
2022-10-30T10:24:59.876Z,14.43
2022-10-30T10:27:52.907Z,13.80
2022-10-30T10:30:47.290Z,13.33
2022-10-30T10:33:40.709Z,13.00
2022-10-30T10:36:32.664Z,12.87
2022-10-30T10:39:25.091Z,13.20
2022-10-30T10:42:29.255Z,13.17
2022-10-30T10:45:26.081Z,11.40
2022-10-30T10:48:30.691Z,12.63
2022-10-30T10:51:20.840Z,11.20
2022-10-30T10:54:12.756Z,11.20
2022-10-30T10:56:59.822Z,10.93
2022-10-30T10:59:47.784Z,11.33
2022-10-30T11:02:51.808Z,11.93
2022-10-30T11:05:43.437Z,10.63
2022-10-30T11:08:34.785Z,11.37
2022-10-30T11:11:20.394Z,10.47
2022-10-30T11:14:25.460Z,10.63
2022-10-30T11:17:19.474Z,9.93
2022-10-30T11:20:22.642Z,11.90
2022-10-30T11:23:30.898Z,10.80
2022-10-30T11:26:22.210Z,9.73
2022-10-30T11:29:15.564Z,9.90
2022-10-30T11:32:03.116Z,7.97
2022-10-30T11:35:02.074Z,8.70
2022-10-30T11:37:49.124Z,10.17
2022-10-30T11:40:34.703Z,8.23
2022-10-30T11:43:24.310Z,7.93
2022-10-30T11:46:12.243Z,7.93
2022-10-30T11:48:57.998Z,8.60
2022-10-30T11:51:47.695Z,7.80
2022-10-30T11:54:40.018Z,7.03
2022-10-30T11:57:32.944Z,8.03
2022-10-30T12:00:21.933Z,7.90
2022-10-30T12:03:26.873Z,8.20
2022-10-30T12:06:20.229Z,7.10
2022-10-30T12:09:20.452Z,7.30
2022-10-30T12:12:11.415Z,7.50
2022-10-30T12:15:07.953Z,7.13
2022-10-30T12:17:54.519Z,7.57
2022-10-30T12:20:40.630Z,6.40
2022-10-30T12:23:28.993Z,7.77
2022-10-30T12:26:15.789Z,6.57
2022-10-30T12:29:03.183Z,6.70
2022-10-30T12:31:48.971Z,7.17
2022-10-30T12:34:34.919Z,7.13
2022-10-30T12:37:28.793Z,6.87
2022-10-30T12:40:17.221Z,6.73
2022-10-30T12:43:11.996Z,7.40
2022-10-30T12:46:05.489Z,6.00
2022-10-30T12:48:59.351Z,6.80
2022-10-30T12:51:53.296Z,8.57
2022-10-30T12:54:42.173Z,7.13
2022-10-30T12:57:29.562Z,6.60
2022-10-30T13:00:16.530Z,6.63
2022-10-30T13:03:17.517Z,7.10
2022-10-30T13:06:08.763Z,6.50
2022-10-30T13:09:13.435Z,7.03
2022-10-30T13:12:03.911Z,6.57
2022-10-30T13:15:03.858Z,6.70
2022-10-30T13:17:50.218Z,7.20
2022-10-30T13:20:36.158Z,6.57
2022-10-30T13:23:25.680Z,8.73
2022-10-30T13:26:14.324Z,7.37
2022-10-30T13:29:03.201Z,7.40
2022-10-30T13:32:01.183Z,7.10
2022-10-30T13:34:51.476Z,7.73
2022-10-30T13:37:42.479Z,7.60
2022-10-30T13:40:50.972Z,6.80
2022-10-30T13:43:43.759Z,7.33
2022-10-30T13:46:32.578Z,6.37
2022-10-30T13:49:31.174Z,6.50
2022-10-30T13:52:18.226Z,6.60
2022-10-30T13:55:23.815Z,7.20
2022-10-30T13:58:15.891Z,6.57
2022-10-30T14:01:01.690Z,7.20
2022-10-30T14:04:06.912Z,6.73
2022-10-30T14:06:52.889Z,7.17
2022-10-30T14:09:51.087Z,6.60
2022-10-30T14:12:55.379Z,7.97
2022-10-30T14:15:43.341Z,6.33
2022-10-30T14:18:43.653Z,7.00
2022-10-30T14:21:40.839Z,7.40
2022-10-30T14:24:30.688Z,6.83
2022-10-30T14:27:21.067Z,7.10
2022-10-30T14:30:18.260Z,7.77
2022-10-30T14:33:03.891Z,7.03
2022-10-30T14:36:09.547Z,7.63
2022-10-30T14:39:01.282Z,7.90
2022-10-30T14:42:05.975Z,8.83
2022-10-30T14:45:11.015Z,7.80
2022-10-30T14:48:00.912Z,7.83
2022-10-30T14:51:05.572Z,8.43
2022-10-30T14:53:59.941Z,8.90
2022-10-30T14:56:51.501Z,8.30
2022-10-30T14:59:39.387Z,9.23
2022-10-30T15:02:33.555Z,8.10
2022-10-30T15:05:19.100Z,8.43
2022-10-30T15:08:16.201Z,8.77
2022-10-30T15:11:08.056Z,8.70
2022-10-30T15:14:01.411Z,8.80
2022-10-30T15:16:50.028Z,8.40
2022-10-30T15:19:37.507Z,9.33
2022-10-30T15:22:24.349Z,9.03
2022-10-30T15:25:20.151Z,11.30
2022-10-30T15:28:06.572Z,10.10
2022-10-30T15:31:00.438Z,9.87
2022-10-30T15:33:46.662Z,10.00
2022-10-30T15:36:41.017Z,10.10
2022-10-30T15:39:27.689Z,10.57
2022-10-30T15:42:14.152Z,11.80
2022-10-30T15:44:59.804Z,15.30
2022-10-30T15:47:49.996Z,14.30
2022-10-30T15:50:35.915Z,14.13
2022-10-30T15:53:25.615Z,14.33
2022-10-30T15:56:24.973Z,13.37
2022-10-30T15:59:18.092Z,13.40
2022-10-30T16:02:03.632Z,12.47
2022-10-30T16:04:50.501Z,13.83
2022-10-30T16:07:36.222Z,13.97
2022-10-30T16:10:23.071Z,14.30
2022-10-30T16:13:13.329Z,14.17
2022-10-30T16:15:59.229Z,13.93
2022-10-30T16:18:45.230Z,13.27
2022-10-30T16:21:31.683Z,13.20
2022-10-30T16:24:18.249Z,12.90
2022-10-30T16:27:07.909Z,13.40
2022-10-30T16:30:00.520Z,13.27
2022-10-30T16:32:52.016Z,13.20
2022-10-30T16:35:37.481Z,13.10
2022-10-30T16:38:24.506Z,13.73
2022-10-30T16:41:13.355Z,13.20
2022-10-30T16:44:10.812Z,13.00
2022-10-30T16:47:17.941Z,16.50
2022-10-30T16:50:05.392Z,18.30
2022-10-30T16:52:51.698Z,18.90
2022-10-30T16:55:39.560Z,16.80
2022-10-30T16:58:27.170Z,16.10
2022-10-30T17:01:13.032Z,18.10
2022-10-30T17:03:59.204Z,19.50
2022-10-30T17:06:48.034Z,17.87
2022-10-30T17:09:38.520Z,18.07
2022-10-30T17:12:25.258Z,18.80
2022-10-30T17:15:14.691Z,19.90
2022-10-30T17:18:11.630Z,21.00
2022-10-30T17:21:02.571Z,21.97
2022-10-30T17:23:53.015Z,21.80
2022-10-30T17:26:39.176Z,22.30
2022-10-30T17:29:36.995Z,21.87
2022-10-30T17:32:24.184Z,20.13
2022-10-30T17:35:14.412Z,20.53
2022-10-30T17:38:02.945Z,18.87
2022-10-30T17:40:49.352Z,18.73
2022-10-30T17:43:38.924Z,22.10
2022-10-30T17:46:25.151Z,25.50
2022-10-30T17:49:20.495Z,26.53
2022-10-30T17:52:06.184Z,20.50
2022-10-30T17:54:53.409Z,21.60
2022-10-30T17:57:40.106Z,22.60
2022-10-30T18:00:27.599Z,21.23
2022-10-30T18:03:13.538Z,20.90
2022-10-30T18:06:02.049Z,20.37
2022-10-30T18:08:50.850Z,21.17
2022-10-30T18:11:36.952Z,20.40
2022-10-30T18:14:22.365Z,22.03
2022-10-30T18:17:07.849Z,21.97
2022-10-30T18:19:54.564Z,23.90
2022-10-30T18:22:40.041Z,25.30
2022-10-30T18:25:29.373Z,22.60
2022-10-30T18:28:14.942Z,20.90
2022-10-30T18:31:01.871Z,21.97
2022-10-30T18:33:47.740Z,20.70
2022-10-30T18:36:33.579Z,20.00
2022-10-30T18:39:19.355Z,19.87
2022-10-30T18:42:05.388Z,25.00
2022-10-30T18:44:51.150Z,25.43
2022-10-30T18:47:36.962Z,24.10
2022-10-30T18:50:24.352Z,26.83
2022-10-30T18:53:16.530Z,23.00
2022-10-30T18:56:02.416Z,20.50
2022-10-30T18:58:48.521Z,20.53
2022-10-30T19:01:34.722Z,21.63
2022-10-30T19:04:22.583Z,21.70
2022-10-30T19:07:08.996Z,22.57
2022-10-30T19:09:55.749Z,22.03
2022-10-30T19:12:51.541Z,24.60
2022-10-30T19:15:49.115Z,21.67
2022-10-30T19:18:36.623Z,25.60
2022-10-30T19:21:23.237Z,24.17
2022-10-30T19:24:10.352Z,23.70
2022-10-30T19:26:56.439Z,25.40
2022-10-30T19:29:42.582Z,27.70
2022-10-30T19:32:28.340Z,21.87
2022-10-30T19:35:14.842Z,22.20
2022-10-30T19:38:01.148Z,24.10
2022-10-30T19:40:48.132Z,24.33
2022-10-30T19:43:33.527Z,23.93
2022-10-30T19:46:19.186Z,23.10
2022-10-30T19:49:23.575Z,22.40
2022-10-30T19:52:09.597Z,22.20
2022-10-30T19:54:55.428Z,22.27
2022-10-30T19:57:41.407Z,21.40
2022-10-30T20:00:28.929Z,21.70
2022-10-30T20:03:19.180Z,20.90
2022-10-30T20:06:05.640Z,23.37
2022-10-30T20:08:51.460Z,25.00
2022-10-30T20:11:37.130Z,21.47
2022-10-30T20:14:24.093Z,21.10
2022-10-30T20:17:10.736Z,20.70
2022-10-30T20:19:56.641Z,21.73
2022-10-30T20:22:43.662Z,23.20
2022-10-30T20:25:29.576Z,25.70
2022-10-30T20:28:24.009Z,24.03
2022-10-30T20:31:11.323Z,28.00
2022-10-30T20:33:56.871Z,23.40
2022-10-30T20:36:42.716Z,22.77
2022-10-30T20:39:28.304Z,22.00
2022-10-30T20:42:14.201Z,20.67
2022-10-30T20:44:59.728Z,21.30
2022-10-30T20:47:47.146Z,21.83
2022-10-30T20:50:35.057Z,20.53
2022-10-30T20:53:20.826Z,22.30
2022-10-30T20:56:07.073Z,22.10
2022-10-30T20:58:53.373Z,23.67
2022-10-30T21:01:39.301Z,22.57
2022-10-30T21:04:25.020Z,23.47
2022-10-30T21:07:13.239Z,21.83
2022-10-30T21:09:59.068Z,21.97
2022-10-30T21:12:44.957Z,23.43
2022-10-30T21:15:30.748Z,22.70
2022-10-30T21:18:16.417Z,20.67
2022-10-30T21:21:03.008Z,21.90
2022-10-30T21:23:48.663Z,22.33
2022-10-30T21:26:36.400Z,22.83
2022-10-30T21:29:24.564Z,20.80
2022-10-30T21:32:10.238Z,21.83
2022-10-30T21:34:55.935Z,22.17
2022-10-30T21:37:41.471Z,20.97
2022-10-30T21:40:26.896Z,19.57
2022-10-30T21:43:12.453Z,21.40
2022-10-30T21:45:58.460Z,19.33
2022-10-30T21:48:47.339Z,19.70
2022-10-30T21:51:33.352Z,20.33
2022-10-30T21:54:19.772Z,20.60
2022-10-30T21:57:05.437Z,19.70
2022-10-30T21:59:51.031Z,19.03
2022-10-30T22:02:36.868Z,23.67
2022-10-30T22:05:22.556Z,21.57
2022-10-30T22:08:08.258Z,21.10
2022-10-30T22:10:53.893Z,20.10
2022-10-30T22:13:39.910Z,20.00
2022-10-30T22:16:26.382Z,21.97
2022-10-30T22:19:12.231Z,22.40
2022-10-30T22:21:58.284Z,21.70
2022-10-30T22:24:43.896Z,22.57
2022-10-30T22:27:29.747Z,21.43
2022-10-30T22:30:15.637Z,19.10
2022-10-30T22:33:01.456Z,19.00
2022-10-30T22:35:48.079Z,18.87
2022-10-30T22:38:34.284Z,19.30
2022-10-30T22:41:21.999Z,21.10
2022-10-30T22:44:09.194Z,20.67
2022-10-30T22:46:55.056Z,19.90
2022-10-30T22:49:42.035Z,18.57
2022-10-30T22:52:27.782Z,21.50
2022-10-30T22:55:13.223Z,19.20
2022-10-30T22:57:59.031Z,20.40
2022-10-30T23:00:45.093Z,20.30
2022-10-30T23:03:31.625Z,22.30
2022-10-30T23:06:17.421Z,19.53
2022-10-30T23:09:06.040Z,19.63
2022-10-30T23:11:52.193Z,19.77
2022-10-30T23:14:37.867Z,18.80
2022-10-30T23:17:23.777Z,17.53
2022-10-30T23:20:10.359Z,17.90
2022-10-30T23:22:56.149Z,17.97
2022-10-30T23:25:41.937Z,17.40
2022-10-30T23:28:28.864Z,17.10
2022-10-30T23:31:25.788Z,18.77
2022-10-30T23:34:13.199Z,17.90
2022-10-30T23:37:01.818Z,17.40
2022-10-30T23:39:48.135Z,18.13
2022-10-30T23:42:35.073Z,17.00
2022-10-30T23:45:21.905Z,17.73
2022-10-30T23:48:08.001Z,17.43
2022-10-30T23:50:54.101Z,17.33
2022-10-30T23:53:40.002Z,16.20
2022-10-30T23:56:25.915Z,17.33
2022-10-30T23:59:11.938Z,15.37
